sensor_id;sensor_type;location;lat;lon;timestamp;pressure;altitude;pressure_sealevel;temperature
72054;BMP280;59918;51.280;7.950;2022-12-10T00:01:24;97134.38;;;-0.85
72054;BMP280;59918;51.280;7.950;2022-12-10T00:03:49;97137.81;;;-0.86
72054;BMP280;59918;51.280;7.950;2022-12-10T00:06:23;97146.19;;;-0.86
72054;BMP280;59918;51.280;7.950;2022-12-10T00:08:50;97146.97;;;-0.85
72054;BMP280;59918;51.280;7.950;2022-12-10T00:11:17;97150.28;;;-0.85
72054;BMP280;59918;51.280;7.950;2022-12-10T00:13:46;97150.16;;;-0.83
72054;BMP280;59918;51.280;7.950;2022-12-10T00:16:13;97150.78;;;-0.81
72054;BMP280;59918;51.280;7.950;2022-12-10T00:18:39;97155.84;;;-0.81
72054;BMP280;59918;51.280;7.950;2022-12-10T00:21:07;97147.94;;;-0.78
72054;BMP280;59918;51.280;7.950;2022-12-10T00:23:34;97147.66;;;-0.75
72054;BMP280;59918;51.280;7.950;2022-12-10T00:26:03;97149.88;;;-0.73
72054;BMP280;59918;51.280;7.950;2022-12-10T00:28:29;97147.22;;;-0.71
72054;BMP280;59918;51.280;7.950;2022-12-10T00:31:27;97150.69;;;-0.72
72054;BMP280;59918;51.280;7.950;2022-12-10T00:33:55;97152.41;;;-0.73
72054;BMP280;59918;51.280;7.950;2022-12-10T00:36:29;97153.22;;;-0.72
72054;BMP280;59918;51.280;7.950;2022-12-10T00:39:01;97151.47;;;-0.72
72054;BMP280;59918;51.280;7.950;2022-12-10T00:41:27;97146.28;;;-0.70
72054;BMP280;59918;51.280;7.950;2022-12-10T00:43:52;97143.75;;;-0.70
72054;BMP280;59918;51.280;7.950;2022-12-10T00:46:21;97137.91;;;-0.71
72054;BMP280;59918;51.280;7.950;2022-12-10T00:48:46;97145.66;;;-0.72
72054;BMP280;59918;51.280;7.950;2022-12-10T00:51:25;97145.28;;;-0.77
72054;BMP280;59918;51.280;7.950;2022-12-10T00:53:53;97140.06;;;-0.83
72054;BMP280;59918;51.280;7.950;2022-12-10T00:56:24;97148.72;;;-0.86
72054;BMP280;59918;51.280;7.950;2022-12-10T00:58:50;97140.78;;;-0.91
72054;BMP280;59918;51.280;7.950;2022-12-10T01:01:37;97145.66;;;-0.97
72054;BMP280;59918;51.280;7.950;2022-12-10T01:04:13;97149.28;;;-1.00
72054;BMP280;59918;51.280;7.950;2022-12-10T01:06:48;97140.09;;;-1.01
72054;BMP280;59918;51.280;7.950;2022-12-10T01:09:16;97144.38;;;-1.01
72054;BMP280;59918;51.280;7.950;2022-12-10T01:11:49;97149.28;;;-1.00
72054;BMP280;59918;51.280;7.950;2022-12-10T01:14:24;97142.50;;;-0.99
72054;BMP280;59918;51.280;7.950;2022-12-10T01:16:53;97149.28;;;-1.00
72054;BMP280;59918;51.280;7.950;2022-12-10T01:19:22;97149.75;;;-0.96
72054;BMP280;59918;51.280;7.950;2022-12-10T01:21:51;97149.75;;;-0.96
72054;BMP280;59918;51.280;7.950;2022-12-10T01:24:16;97155.44;;;-0.94
72054;BMP280;59918;51.280;7.950;2022-12-10T01:26:42;97158.59;;;-0.92
72054;BMP280;59918;51.280;7.950;2022-12-10T01:29:13;97156.72;;;-0.90
72054;BMP280;59918;51.280;7.950;2022-12-10T01:31:38;97156.44;;;-0.87
72054;BMP280;59918;51.280;7.950;2022-12-10T01:34:11;97159.28;;;-0.82
72054;BMP280;59918;51.280;7.950;2022-12-10T01:36:51;97164.50;;;-0.84
72054;BMP280;59918;51.280;7.950;2022-12-10T01:39:18;97167.81;;;-0.83
72054;BMP280;59918;51.280;7.950;2022-12-10T01:42:13;97172.72;;;-0.82
72054;BMP280;59918;51.280;7.950;2022-12-10T01:47:13;97167.03;;;-0.84
72054;BMP280;59918;51.280;7.950;2022-12-10T01:49:39;97169.84;;;-0.87
72054;BMP280;59918;51.280;7.950;2022-12-10T01:52:13;97172.22;;;-0.85
72054;BMP280;59918;51.280;7.950;2022-12-10T01:54:42;97182.81;;;-0.82
72054;BMP280;59918;51.280;7.950;2022-12-10T01:57:16;97184.25;;;-0.79
72054;BMP280;59918;51.280;7.950;2022-12-10T01:59:43;97183.47;;;-0.80
72054;BMP280;59918;51.280;7.950;2022-12-10T02:16:32;97182.41;;;-0.70
72054;BMP280;59918;51.280;7.950;2022-12-10T02:21:48;97176.13;;;-0.66
72054;BMP280;59918;51.280;7.950;2022-12-10T02:24:28;97174.25;;;-0.64
72054;BMP280;59918;51.280;7.950;2022-12-10T02:27:21;97171.44;;;-0.61
72054;BMP280;59918;51.280;7.950;2022-12-10T02:29:48;97171.13;;;-0.58
72054;BMP280;59918;51.280;7.950;2022-12-10T02:32:18;97169.09;;;-0.54
72054;BMP280;59918;51.280;7.950;2022-12-10T02:34:52;97176.22;;;-0.50
72054;BMP280;59918;51.280;7.950;2022-12-10T02:37:30;97165.00;;;-0.47
72054;BMP280;59918;51.280;7.950;2022-12-10T02:40:04;97161.06;;;-0.50
72054;BMP280;59918;51.280;7.950;2022-12-10T02:42:39;97161.53;;;-0.46
72054;BMP280;59918;51.280;7.950;2022-12-10T02:45:08;97161.06;;;-0.50
72054;BMP280;59918;51.280;7.950;2022-12-10T02:47:36;97165.19;;;-0.49
72054;BMP280;59918;51.280;7.950;2022-12-10T02:50:04;97161.53;;;-0.46
72054;BMP280;59918;51.280;7.950;2022-12-10T02:52:30;97168.03;;;-0.44
72054;BMP280;59918;51.280;7.950;2022-12-10T02:54:56;97161.88;;;-0.41
72054;BMP280;59918;51.280;7.950;2022-12-10T02:57:37;97158.28;;;-0.39
72054;BMP280;59918;51.280;7.950;2022-12-10T03:03:09;97155.56;;;-0.38
72054;BMP280;59918;51.280;7.950;2022-12-10T03:08:28;97162.72;;;-0.33
72054;BMP280;59918;51.280;7.950;2022-12-10T03:13:31;97165.69;;;-0.30
72054;BMP280;59918;51.280;7.950;2022-12-10T03:16:04;97162.88;;;-0.27
72054;BMP280;59918;51.280;7.950;2022-12-10T03:18:31;97165.28;;;-0.25
72054;BMP280;59918;51.280;7.950;2022-12-10T03:21:04;97164.03;;;-0.21
72054;BMP280;59918;51.280;7.950;2022-12-10T03:23:33;97169.84;;;-0.21
72054;BMP280;59918;51.280;7.950;2022-12-10T03:26:00;97160.38;;;-0.19
72054;BMP280;59918;51.280;7.950;2022-12-10T03:28:29;97161.81;;;-0.16
72054;BMP280;59918;51.280;7.950;2022-12-10T03:30:56;97159.28;;;-0.16
72054;BMP280;59918;51.280;7.950;2022-12-10T03:33:25;97161.66;;;-0.15
72054;BMP280;59918;51.280;7.950;2022-12-10T03:35:50;97163.19;;;-0.22
72054;BMP280;59918;51.280;7.950;2022-12-10T03:38:16;97165.09;;;-0.24
72054;BMP280;59918;51.280;7.950;2022-12-10T03:40:41;97169.22;;;-0.23
72054;BMP280;59918;51.280;7.950;2022-12-10T03:43:07;97168.13;;;-0.20
72054;BMP280;59918;51.280;7.950;2022-12-10T03:45:32;97171.28;;;-0.18
72054;BMP280;59918;51.280;7.950;2022-12-10T03:48:00;97164.97;;;-0.14
72054;BMP280;59918;51.280;7.950;2022-12-10T03:50:26;97170.66;;;-0.12
72054;BMP280;59918;51.280;7.950;2022-12-10T03:52:51;97173.06;;;-0.11
72054;BMP280;59918;51.280;7.950;2022-12-10T03:55:16;97170.38;;;-0.09
72054;BMP280;59918;51.280;7.950;2022-12-10T03:57:41;97183.31;;;-0.04
72054;BMP280;59918;51.280;7.950;2022-12-10T04:00:15;97178.13;;;-0.03
72054;BMP280;59918;51.280;7.950;2022-12-10T04:02:41;97187.28;;;-0.02
72054;BMP280;59918;51.280;7.950;2022-12-10T04:05:06;97186.34;;;-0.01
72054;BMP280;59918;51.280;7.950;2022-12-10T04:07:32;97189.66;;;-0.01
72054;BMP280;59918;51.280;7.950;2022-12-10T04:10:01;97190.28;;;0.01
72054;BMP280;59918;51.280;7.950;2022-12-10T04:12:26;97192.81;;;0.01
72054;BMP280;59918;51.280;7.950;2022-12-10T04:14:51;97199.47;;;0.02
72054;BMP280;59918;51.280;7.950;2022-12-10T04:17:16;97192.81;;;0.01
72054;BMP280;59918;51.280;7.950;2022-12-10T04:19:42;97195.22;;;0.03
72054;BMP280;59918;51.280;7.950;2022-12-10T04:22:08;97192.53;;;0.04
72054;BMP280;59918;51.280;7.950;2022-12-10T04:24:39;97184.16;;;0.04
72054;BMP280;59918;51.280;7.950;2022-12-10T04:27:08;97187.63;;;0.03
72054;BMP280;59918;51.280;7.950;2022-12-10T04:29:37;97179.25;;;0.02
72054;BMP280;59918;51.280;7.950;2022-12-10T04:32:02;97185.41;;;0.00
72054;BMP280;59918;51.280;7.950;2022-12-10T04:34:30;97171.94;;;-0.08
72054;BMP280;59918;51.280;7.950;2022-12-10T04:36:57;97171.16;;;-0.09
72054;BMP280;59918;51.280;7.950;2022-12-10T04:39:26;97169.41;;;-0.08
72054;BMP280;59918;51.280;7.950;2022-12-10T04:41:52;97178.41;;;-0.06
72054;BMP280;59918;51.280;7.950;2022-12-10T04:44:17;97175.75;;;-0.04
72054;BMP280;59918;51.280;7.950;2022-12-10T04:46:43;97176.38;;;-0.02
72054;BMP280;59918;51.280;7.950;2022-12-10T04:49:09;97179.88;;;-0.03
72054;BMP280;59918;51.280;7.950;2022-12-10T04:51:38;97174.31;;;-0.07
72054;BMP280;59918;51.280;7.950;2022-12-10T04:54:04;97171.94;;;-0.08
72054;BMP280;59918;51.280;7.950;2022-12-10T04:56:30;97178.88;;;-0.10
72054;BMP280;59918;51.280;7.950;2022-12-10T04:58:56;97184.91;;;-0.11
72054;BMP280;59918;51.280;7.950;2022-12-10T05:01:26;97182.66;;;-0.14
72054;BMP280;59918;51.280;7.950;2022-12-10T05:03:52;97184.41;;;-0.15
72054;BMP280;59918;51.280;7.950;2022-12-10T05:06:20;97186.47;;;-0.10
72054;BMP280;59918;51.280;7.950;2022-12-10T05:08:49;97193.44;;;-0.04
72054;BMP280;59918;51.280;7.950;2022-12-10T05:11:16;97190.63;;;-0.01
72054;BMP280;59918;51.280;7.950;2022-12-10T05:13:42;97192.81;;;0.01
72054;BMP280;59918;51.280;7.950;2022-12-10T05:16:09;97192.53;;;0.04
72054;BMP280;59918;51.280;7.950;2022-12-10T05:18:38;97190.66;;;0.06
72054;BMP280;59918;51.280;7.950;2022-12-10T05:21:06;97187.16;;;0.07
72054;BMP280;59918;51.280;7.950;2022-12-10T05:23:35;97185.44;;;0.08
72054;BMP280;59918;51.280;7.950;2022-12-10T05:26:03;97186.22;;;0.08
72054;BMP280;59918;51.280;7.950;2022-12-10T05:28:32;97188.44;;;0.11
72054;BMP280;59918;51.280;7.950;2022-12-10T05:31:01;97190.81;;;0.13
72054;BMP280;59918;51.280;7.950;2022-12-10T05:33:27;97186.53;;;0.13
72054;BMP280;59918;51.280;7.950;2022-12-10T05:35:54;97190.66;;;0.14
72054;BMP280;59918;51.280;7.950;2022-12-10T05:38:20;97199.81;;;0.15
72054;BMP280;59918;51.280;7.950;2022-12-10T05:40:55;97201.41;;;0.16
72054;BMP280;59918;51.280;7.950;2022-12-10T05:43:20;97203.31;;;0.14
72054;BMP280;59918;51.280;7.950;2022-12-10T05:45:49;97209.47;;;0.12
72054;BMP280;59918;51.280;7.950;2022-12-10T05:48:15;97206.75;;;0.13
72054;BMP280;59918;51.280;7.950;2022-12-10T05:50:40;97208.50;;;0.13
72054;BMP280;59918;51.280;7.950;2022-12-10T05:53:06;97210.25;;;0.12
72054;BMP280;59918;51.280;7.950;2022-12-10T05:55:31;97217.84;;;0.12
72054;BMP280;59918;51.280;7.950;2022-12-10T05:57:56;97212.75;;;0.04
72054;BMP280;59918;51.280;7.950;2022-12-10T06:02:54;97214.75;;;-0.07
72054;BMP280;59918;51.280;7.950;2022-12-10T06:05:19;97215.25;;;-0.03
72054;BMP280;59918;51.280;7.950;2022-12-10T06:07:45;97214.44;;;-0.04
72054;BMP280;59918;51.280;7.950;2022-12-10T06:10:10;97215.53;;;-0.06
72054;BMP280;59918;51.280;7.950;2022-12-10T06:12:36;97215.06;;;-0.10
72054;BMP280;59918;51.280;7.950;2022-12-10T06:15:02;97217.41;;;-0.16
72054;BMP280;59918;51.280;7.950;2022-12-10T06:17:30;97218.00;;;-0.22
72054;BMP280;59918;51.280;7.950;2022-12-10T06:19:55;97218.16;;;-0.24
72054;BMP280;59918;51.280;7.950;2022-12-10T06:22:21;97217.41;;;-0.16
72054;BMP280;59918;51.280;7.950;2022-12-10T06:24:46;97220.28;;;-0.11
72054;BMP280;59918;51.280;7.950;2022-12-10T06:27:11;97218.53;;;-0.11
72054;BMP280;59918;51.280;7.950;2022-12-10T06:29:36;97219.31;;;-0.10
72054;BMP280;59918;51.280;7.950;2022-12-10T06:32:04;97220.91;;;-0.09
72054;BMP280;59918;51.280;7.950;2022-12-10T06:34:30;97229.94;;;-0.07
72054;BMP280;59918;51.280;7.950;2022-12-10T06:36:55;97227.53;;;-0.08
72054;BMP280;59918;51.280;7.950;2022-12-10T06:39:20;97228.19;;;-0.06
72054;BMP280;59918;51.280;7.950;2022-12-10T06:41:45;97220.31;;;-0.03
72054;BMP280;59918;51.280;7.950;2022-12-10T06:44:11;97221.88;;;-0.02
72054;BMP280;59918;51.280;7.950;2022-12-10T06:46:37;97223.34;;;0.00
72054;BMP280;59918;51.280;7.950;2022-12-10T06:49:05;97224.75;;;0.02
72054;BMP280;59918;51.280;7.950;2022-12-10T06:51:30;97221.91;;;0.05
72054;BMP280;59918;51.280;7.950;2022-12-10T06:53:55;97222.72;;;0.06
72054;BMP280;59918;51.280;7.950;2022-12-10T06:56:21;97227.59;;;0.07
72054;BMP280;59918;51.280;7.950;2022-12-10T06:58:47;97225.06;;;0.07
72054;BMP280;59918;51.280;7.950;2022-12-10T07:01:21;97225.88;;;0.08
72054;BMP280;59918;51.280;7.950;2022-12-10T07:03:56;97237.88;;;0.06
72054;BMP280;59918;51.280;7.950;2022-12-10T07:06:22;97241.97;;;0.07
72054;BMP280;59918;51.280;7.950;2022-12-10T07:08:47;97242.78;;;0.07
72054;BMP280;59918;51.280;7.950;2022-12-10T07:11:21;97246.25;;;0.06
72054;BMP280;59918;51.280;7.950;2022-12-10T07:13:47;97246.72;;;0.02
72054;BMP280;59918;51.280;7.950;2022-12-10T07:16:19;97252.72;;;0.01
72054;BMP280;59918;51.280;7.950;2022-12-10T07:18:45;97246.88;;;0.00
72054;BMP280;59918;51.280;7.950;2022-12-10T07:21:31;97257.91;;;-0.01
72054;BMP280;59918;51.280;7.950;2022-12-10T07:23:59;97254.75;;;-0.02
72054;BMP280;59918;51.280;7.950;2022-12-10T07:26:34;97258.97;;;-0.11
72054;BMP280;59918;51.280;7.950;2022-12-10T07:29:01;97264.31;;;-0.14
72054;BMP280;59918;51.280;7.950;2022-12-10T07:31:30;97268.94;;;-0.09
72054;BMP280;59918;51.280;7.950;2022-12-10T07:33:57;97271.16;;;-0.06
72054;BMP280;59918;51.280;7.950;2022-12-10T07:36:23;97266.59;;;-0.03
72054;BMP280;59918;51.280;7.950;2022-12-10T07:38:53;97265.50;;;-0.01
72054;BMP280;59918;51.280;7.950;2022-12-10T07:41:18;97267.88;;;0.01
72054;BMP280;59918;51.280;7.950;2022-12-10T07:43:45;97266.31;;;0.00
72054;BMP280;59918;51.280;7.950;2022-12-10T07:46:22;97263.78;;;0.00
72054;BMP280;59918;51.280;7.950;2022-12-10T07:48:48;97274.53;;;0.02
72054;BMP280;59918;51.280;7.950;2022-12-10T07:51:21;97274.53;;;0.02
72054;BMP280;59918;51.280;7.950;2022-12-10T07:53:48;97278.75;;;0.01
72054;BMP280;59918;51.280;7.950;2022-12-10T07:56:20;97281.94;;;0.03
72054;BMP280;59918;51.280;7.950;2022-12-10T07:58:45;97283.53;;;0.04
72054;BMP280;59918;51.280;7.950;2022-12-10T08:01:23;97279.41;;;0.03
72054;BMP280;59918;51.280;7.950;2022-12-10T08:03:54;97277.97;;;0.01
72054;BMP280;59918;51.280;7.950;2022-12-10T08:06:21;97270.38;;;-0.07
72054;BMP280;59918;51.280;7.950;2022-12-10T08:08:47;97282.00;;;-0.14
72054;BMP280;59918;51.280;7.950;2022-12-10T08:11:13;97283.56;;;-0.21
72054;BMP280;59918;51.280;7.950;2022-12-10T08:13:42;97286.09;;;-0.21
72054;BMP280;59918;51.280;7.950;2022-12-10T08:16:12;97283.75;;;-0.14
72054;BMP280;59918;51.280;7.950;2022-12-10T08:18:43;97286.31;;;-0.06
72054;BMP280;59918;51.280;7.950;2022-12-10T08:21:12;97285.06;;;-0.02
72054;BMP280;59918;51.280;7.950;2022-12-10T08:23:42;97288.56;;;-0.03
72054;BMP280;59918;51.280;7.950;2022-12-10T08:26:13;97295.63;;;-0.07
72054;BMP280;59918;51.280;7.950;2022-12-10T08:28:42;97299.41;;;-0.11
72054;BMP280;59918;51.280;7.950;2022-12-10T08:31:10;97297.34;;;-0.15
72054;BMP280;59918;51.280;7.950;2022-12-10T08:33:36;97306.94;;;-0.19
72054;BMP280;59918;51.280;7.950;2022-12-10T08:36:08;97301.41;;;-0.22
72054;BMP280;59918;51.280;7.950;2022-12-10T08:38:36;97306.72;;;-0.33
72054;BMP280;59918;51.280;7.950;2022-12-10T08:41:10;97309.88;;;-0.31
72054;BMP280;59918;51.280;7.950;2022-12-10T08:43:36;97309.56;;;-0.28
72054;BMP280;59918;51.280;7.950;2022-12-10T08:46:08;97306.13;;;-0.27
72054;BMP280;59918;51.280;7.950;2022-12-10T08:48:34;97308.78;;;-0.29
72054;BMP280;59918;51.280;7.950;2022-12-10T08:50:59;97305.34;;;-0.20
72054;BMP280;59918;51.280;7.950;2022-12-10T08:53:24;97309.53;;;-0.11
72054;BMP280;59918;51.280;7.950;2022-12-10T08:55:55;97311.31;;;-0.03
72054;BMP280;59918;51.280;7.950;2022-12-10T08:58:21;97314.25;;;-0.08
72054;BMP280;59918;51.280;7.950;2022-12-10T09:00:50;97321.41;;;-0.03
72054;BMP280;59918;51.280;7.950;2022-12-10T09:03:18;97313.50;;;-0.01
72054;BMP280;59918;51.280;7.950;2022-12-10T09:05:43;97322.06;;;-0.01
72054;BMP280;59918;51.280;7.950;2022-12-10T09:08:09;97322.97;;;-0.02
72054;BMP280;59918;51.280;7.950;2022-12-10T09:10:36;97329.31;;;0.01
72054;BMP280;59918;51.280;7.950;2022-12-10T09:13:02;97321.47;;;0.04
72054;BMP280;59918;51.280;7.950;2022-12-10T09:15:31;97323.06;;;0.13
72054;BMP280;59918;51.280;7.950;2022-12-10T09:17:56;97320.09;;;0.18
72054;BMP280;59918;51.280;7.950;2022-12-10T09:20:22;97326.09;;;0.17
72054;BMP280;59918;51.280;7.950;2022-12-10T09:22:47;97329.25;;;0.19
72054;BMP280;59918;51.280;7.950;2022-12-10T09:25:12;97324.38;;;0.25
72054;BMP280;59918;51.280;7.950;2022-12-10T09:27:37;97323.47;;;0.34
72054;BMP280;59918;51.280;7.950;2022-12-10T09:30:10;97331.84;;;0.35
72054;BMP280;59918;51.280;7.950;2022-12-10T09:32:35;97334.25;;;0.36
72054;BMP280;59918;51.280;7.950;2022-12-10T09:35:01;97339.78;;;0.39
72054;BMP280;59918;51.280;7.950;2022-12-10T09:37:26;97340.13;;;0.44
72054;BMP280;59918;51.280;7.950;2022-12-10T09:39:54;97335.69;;;0.46
72054;BMP280;59918;51.280;7.950;2022-12-10T09:48:16;97347.06;;;0.42
72054;BMP280;59918;51.280;7.950;2022-12-10T09:51:09;97348.50;;;0.45
72054;BMP280;59918;51.280;7.950;2022-12-10T09:53:58;97338.72;;;0.50
72054;BMP280;59918;51.280;7.950;2022-12-10T09:56:31;97344.72;;;0.57
72054;BMP280;59918;51.280;7.950;2022-12-10T09:59:03;97340.63;;;0.56
72054;BMP280;59918;51.280;7.950;2022-12-10T10:01:34;97346.78;;;0.45
72054;BMP280;59918;51.280;7.950;2022-12-10T10:04:00;97342.16;;;0.41
72054;BMP280;59918;51.280;7.950;2022-12-10T10:06:33;97342.16;;;0.41
72054;BMP280;59918;51.280;7.950;2022-12-10T10:09:00;97342.97;;;0.41
72054;BMP280;59918;51.280;7.950;2022-12-10T10:11:34;97339.97;;;0.46
72054;BMP280;59918;51.280;7.950;2022-12-10T10:14:13;97345.81;;;0.46
72054;BMP280;59918;51.280;7.950;2022-12-10T10:16:48;97347.56;;;0.46
72054;BMP280;59918;51.280;7.950;2022-12-10T10:19:35;97346.91;;;0.44
72054;BMP280;59918;51.280;7.950;2022-12-10T10:22:00;97337.44;;;0.46
72054;BMP280;59918;51.280;7.950;2022-12-10T10:24:44;97339.66;;;0.49
72054;BMP280;59918;51.280;7.950;2022-12-10T10:27:21;97339.66;;;0.49
72054;BMP280;59918;51.280;7.950;2022-12-10T10:29:53;97337.94;;;0.49
72054;BMP280;59918;51.280;7.950;2022-12-10T10:32:43;97350.72;;;0.48
72054;BMP280;59918;51.280;7.950;2022-12-10T10:36:04;97349.72;;;0.41
72054;BMP280;59918;51.280;7.950;2022-12-10T10:38:20;97345.63;;;0.40
72054;BMP280;59918;51.280;7.950;2022-12-10T10:40:52;97347.19;;;0.41
72054;BMP280;59918;51.280;7.950;2022-12-10T10:43:43;97341.06;;;0.43
72054;BMP280;59918;51.280;7.950;2022-12-10T10:46:14;97345.03;;;0.46
72054;BMP280;59918;51.280;7.950;2022-12-10T10:48:40;97345.81;;;0.46
72054;BMP280;59918;51.280;7.950;2022-12-10T10:51:20;97345.84;;;0.54
72054;BMP280;59918;51.280;7.950;2022-12-10T10:53:49;97351.25;;;0.59
72054;BMP280;59918;51.280;7.950;2022-12-10T10:56:27;97339.53;;;0.66
72054;BMP280;59918;51.280;7.950;2022-12-10T10:59:17;97338.28;;;0.70
72054;BMP280;59918;51.280;7.950;2022-12-10T11:01:50;97345.44;;;0.67
72054;BMP280;59918;51.280;7.950;2022-12-10T11:04:44;97351.28;;;0.67
72054;BMP280;59918;51.280;7.950;2022-12-10T11:07:04;97353.31;;;0.64
72054;BMP280;59918;51.280;7.950;2022-12-10T11:09:36;97353.03;;;0.67
72054;BMP280;59918;51.280;7.950;2022-12-10T11:12:05;97341.78;;;0.69
72054;BMP280;59918;51.280;7.950;2022-12-10T11:22:33;97353.88;;;0.91
72054;BMP280;59918;51.280;7.950;2022-12-10T11:24:59;97350.03;;;0.79
72054;BMP280;59918;51.280;7.950;2022-12-10T11:27:59;97350.97;;;0.78
72054;BMP280;59918;51.280;7.950;2022-12-10T11:30:43;97362.53;;;0.73
72054;BMP280;59918;51.280;7.950;2022-12-10T11:36:13;97358.06;;;0.67
72054;BMP280;59918;51.280;7.950;2022-12-10T11:47:34;97359.06;;;0.81
72054;BMP280;59918;51.280;7.950;2022-12-10T11:58:58;97361.28;;;0.84
72054;BMP280;59918;51.280;7.950;2022-12-10T12:04:52;97365.38;;;0.85
72054;BMP280;59918;51.280;7.950;2022-12-10T12:13:05;97376.75;;;0.73
72054;BMP280;59918;51.280;7.950;2022-12-10T12:19:11;97383.25;;;0.43
72054;BMP280;59918;51.280;7.950;2022-12-10T12:21:42;97380.09;;;0.41
72054;BMP280;59918;51.280;7.950;2022-12-10T12:24:44;97373.78;;;0.45
72054;BMP280;59918;51.280;7.950;2022-12-10T12:27:36;97376.50;;;0.51
72054;BMP280;59918;51.280;7.950;2022-12-10T12:30:18;97381.41;;;0.53
72054;BMP280;59918;51.280;7.950;2022-12-10T12:35:55;97387.56;;;0.50
72054;BMP280;59918;51.280;7.950;2022-12-10T12:41:37;97383.50;;;0.57
72054;BMP280;59918;51.280;7.950;2022-12-10T12:46:44;97383.84;;;0.70
72054;BMP280;59918;51.280;7.950;2022-12-10T12:49:29;97380.56;;;0.77
72054;BMP280;59918;51.280;7.950;2022-12-10T12:54:57;97376.00;;;0.81
72054;BMP280;59918;51.280;7.950;2022-12-10T12:57:41;97379.31;;;0.89
72054;BMP280;59918;51.280;7.950;2022-12-10T13:00:18;97375.56;;;1.01
72054;BMP280;59918;51.280;7.950;2022-12-10T13:05:35;97379.69;;;1.10
72054;BMP280;59918;51.280;7.950;2022-12-10T13:11:17;97372.91;;;1.18
72054;BMP280;59918;51.280;7.950;2022-12-10T13:22:12;97371.03;;;1.36
72054;BMP280;59918;51.280;7.950;2022-12-10T13:27:57;97371.66;;;1.30
72054;BMP280;59918;51.280;7.950;2022-12-10T13:30:40;97374.66;;;1.34
72054;BMP280;59918;51.280;7.950;2022-12-10T13:33:19;97368.50;;;1.36
72054;BMP280;59918;51.280;7.950;2022-12-10T13:35:59;97370.72;;;1.31
72054;BMP280;59918;51.280;7.950;2022-12-10T13:38:54;97371.00;;;1.28
72054;BMP280;59918;51.280;7.950;2022-12-10T13:41:19;97378.75;;;1.27
72054;BMP280;59918;51.280;7.950;2022-12-10T13:43:56;97374.66;;;1.26
72054;BMP280;59918;51.280;7.950;2022-12-10T13:48:53;97377.34;;;1.24
72054;BMP280;59918;51.280;7.950;2022-12-10T13:51:53;97374.16;;;1.22
72054;BMP280;59918;51.280;7.950;2022-12-10T14:08:32;97381.88;;;1.05
72054;BMP280;59918;51.280;7.950;2022-12-10T14:10:58;97384.41;;;1.05
72054;BMP280;59918;51.280;7.950;2022-12-10T14:13:35;97392.97;;;1.04
72054;BMP280;59918;51.280;7.950;2022-12-10T14:16:06;97389.81;;;1.02
72054;BMP280;59918;51.280;7.950;2022-12-10T14:18:35;97389.81;;;1.02
72054;BMP280;59918;51.280;7.950;2022-12-10T14:21:07;97389.19;;;1.00
72054;BMP280;59918;51.280;7.950;2022-12-10T14:23:34;97391.72;;;1.00
72054;BMP280;59918;51.280;7.950;2022-12-10T14:26:21;97393.44;;;1.00
72054;BMP280;59918;51.280;7.950;2022-12-10T14:28:50;97394.25;;;1.00
72054;BMP280;59918;51.280;7.950;2022-12-10T14:31:21;97394.38;;;0.99
72054;BMP280;59918;51.280;7.950;2022-12-10T14:33:55;97393.75;;;0.97
72054;BMP280;59918;51.280;7.950;2022-12-10T14:36:30;97393.72;;;0.89
72054;BMP280;59918;51.280;7.950;2022-12-10T14:38:57;97395.91;;;0.84
72054;BMP280;59918;51.280;7.950;2022-12-10T14:41:24;97395.28;;;0.82
72054;BMP280;59918;51.280;7.950;2022-12-10T14:43:55;97393.22;;;0.77
72054;BMP280;59918;51.280;7.950;2022-12-10T14:46:30;97397.97;;;0.73
72054;BMP280;59918;51.280;7.950;2022-12-10T14:48:56;97407.72;;;0.68
72054;BMP280;59918;51.280;7.950;2022-12-10T14:51:23;97405.53;;;0.65
72054;BMP280;59918;51.280;7.950;2022-12-10T14:53:54;97403.13;;;0.63
72054;BMP280;59918;51.280;7.950;2022-12-10T15:01:41;97403.25;;;0.54
72054;BMP280;59918;51.280;7.950;2022-12-10T15:04:19;97402.59;;;0.52
72054;BMP280;59918;51.280;7.950;2022-12-10T15:06:46;97410.34;;;0.50
72054;BMP280;59918;51.280;7.950;2022-12-10T15:09:24;97405.28;;;0.50
72054;BMP280;59918;51.280;7.950;2022-12-10T15:11:54;97411.28;;;0.49
72054;BMP280;59918;51.280;7.950;2022-12-10T15:14:20;97409.56;;;0.50
72054;BMP280;59918;51.280;7.950;2022-12-10T15:16:46;97413.66;;;0.51
72054;BMP280;59918;51.280;7.950;2022-12-10T15:19:32;97403.84;;;0.48
72054;BMP280;59918;51.280;7.950;2022-12-10T15:22:00;97404.00;;;0.46
72054;BMP280;59918;51.280;7.950;2022-12-10T15:24:42;97409.06;;;0.46
72054;BMP280;59918;51.280;7.950;2022-12-10T15:27:24;97421.19;;;0.43
72054;BMP280;59918;51.280;7.950;2022-12-10T15:29:53;97429.44;;;0.45
72054;BMP280;59918;51.280;7.950;2022-12-10T15:32:22;97424.38;;;0.45
72054;BMP280;59918;51.280;7.950;2022-12-10T15:35:00;97427.38;;;0.40
72054;BMP280;59918;51.280;7.950;2022-12-10T15:37:34;97426.72;;;0.38
72054;BMP280;59918;51.280;7.950;2022-12-10T15:40:21;97432.88;;;0.36
72054;BMP280;59918;51.280;7.950;2022-12-10T15:42:47;97432.22;;;0.34
72054;BMP280;59918;51.280;7.950;2022-12-10T15:47:44;97436.66;;;0.32
72054;BMP280;59918;51.280;7.950;2022-12-10T15:50:10;97432.38;;;0.33
72054;BMP280;59918;51.280;7.950;2022-12-10T15:52:35;97430.94;;;0.30
72054;BMP280;59918;51.280;7.950;2022-12-10T15:55:01;97437.75;;;0.30
72054;BMP280;59918;51.280;7.950;2022-12-10T15:57:35;97433.47;;;0.30
72054;BMP280;59918;51.280;7.950;2022-12-10T16:00:15;97441.06;;;0.30
72054;BMP280;59918;51.280;7.950;2022-12-10T16:02:57;97446.25;;;0.29
72054;BMP280;59918;51.280;7.950;2022-12-10T16:05:33;97433.06;;;0.17
72054;BMP280;59918;51.280;7.950;2022-12-10T16:08:01;97433.06;;;0.17
72054;BMP280;59918;51.280;7.950;2022-12-10T16:10:30;97426.66;;;0.05
72054;BMP280;59918;51.280;7.950;2022-12-10T16:12:59;97431.44;;;0.08
72054;BMP280;59918;51.280;7.950;2022-12-10T16:15:31;97429.56;;;0.10
72054;BMP280;59918;51.280;7.950;2022-12-10T16:17:57;97431.31;;;0.10
72054;BMP280;59918;51.280;7.950;2022-12-10T16:20:25;97434.31;;;0.13
72054;BMP280;59918;51.280;7.950;2022-12-10T16:22:55;97443.19;;;0.17
72054;BMP280;59918;51.280;7.950;2022-12-10T16:25:23;97448.59;;;0.22
72054;BMP280;59918;51.280;7.950;2022-12-10T16:27:49;97446.41;;;0.27
72054;BMP280;59918;51.280;7.950;2022-12-10T16:30:23;97445.94;;;0.24
72054;BMP280;59918;51.280;7.950;2022-12-10T16:32:49;97453.31;;;0.17
72054;BMP280;59918;51.280;7.950;2022-12-10T16:35:17;97448.09;;;0.19
72054;BMP280;59918;51.280;7.950;2022-12-10T16:37:47;97451.28;;;0.21
72054;BMP280;59918;51.280;7.950;2022-12-10T16:40:19;97453.66;;;0.22
72054;BMP280;59918;51.280;7.950;2022-12-10T16:42:45;97450.03;;;0.25
72054;BMP280;59918;51.280;7.950;2022-12-10T16:47:44;97452.09;;;0.29
72054;BMP280;59918;51.280;7.950;2022-12-10T16:50:11;97457.66;;;0.33